createdAt,value
2023-05-09T00:00:18.526Z,6.79
2023-05-09T03:01:18.674Z,5.18
2023-05-09T03:03:47.210Z,5.19
2023-05-09T03:06:17.016Z,5.20
2023-05-09T03:08:46.090Z,5.17
2023-05-09T03:11:15.195Z,5.13
2023-05-09T03:13:44.829Z,5.18
2023-05-09T03:16:15.508Z,5.12
2023-05-09T03:18:44.721Z,5.06
2023-05-09T03:21:13.820Z,5.07
2023-05-09T03:23:42.916Z,5.05
2023-05-09T03:26:11.844Z,5.08
2023-05-09T03:28:40.694Z,5.12
2023-05-09T03:31:09.912Z,5.16
2023-05-09T03:33:38.797Z,5.23
2023-05-09T03:36:08.256Z,5.26
2023-05-09T03:38:37.822Z,5.31
2023-05-09T03:41:06.986Z,5.32
2023-05-09T03:43:35.961Z,5.30
2023-05-09T03:46:04.722Z,5.33
2023-05-09T03:48:33.855Z,5.33
2023-05-09T03:51:03.661Z,5.37
2023-05-09T03:53:33.028Z,5.37
2023-05-09T03:56:01.238Z,5.33
2023-05-09T03:58:31.821Z,5.38
2023-05-09T04:01:01.956Z,5.43
2023-05-09T04:03:32.490Z,5.50
2023-05-09T04:06:01.746Z,5.61
2023-05-09T04:08:37.792Z,5.68
2023-05-09T04:11:06.943Z,5.81
2023-05-09T04:13:36.618Z,6.02
2023-05-09T04:16:09.837Z,6.23
2023-05-09T04:18:42.819Z,7.18
2023-05-09T04:21:11.901Z,8.45
2023-05-09T04:23:41.185Z,9.07
2023-05-09T04:26:11.317Z,9.48
2023-05-09T04:28:40.227Z,10.05
2023-05-09T04:31:10.555Z,10.96
2023-05-09T04:33:39.734Z,12.14
2023-05-09T04:36:08.481Z,13.20
2023-05-09T04:38:37.620Z,13.89
2023-05-09T04:41:09.716Z,14.38
2023-05-09T04:43:39.026Z,14.69
2023-05-09T04:46:08.398Z,15.14
2023-05-09T04:48:37.274Z,15.68
2023-05-09T04:51:06.045Z,16.06
2023-05-09T04:53:36.845Z,16.65
2023-05-09T04:56:06.282Z,17.35
2023-05-09T04:58:39.126Z,17.97
2023-05-09T05:01:11.288Z,18.10
2023-05-09T05:03:40.049Z,18.27
2023-05-09T05:06:09.087Z,18.52
2023-05-09T05:08:38.709Z,18.66
2023-05-09T05:11:07.536Z,18.88
2023-05-09T05:13:36.865Z,18.98
2023-05-09T05:16:05.909Z,19.13
2023-05-09T05:18:35.005Z,19.30
2023-05-09T05:21:05.078Z,19.23
2023-05-09T05:23:34.339Z,19.44
2023-05-09T05:26:03.505Z,19.62
2023-05-09T05:28:33.275Z,19.68
2023-05-09T05:31:02.666Z,19.91
2023-05-09T05:33:31.606Z,20.35
2023-05-09T05:36:00.957Z,20.89
2023-05-09T05:38:30.073Z,21.42
2023-05-09T05:41:00.160Z,21.96
2023-05-09T05:43:29.931Z,22.51
2023-05-09T05:45:59.281Z,22.99
2023-05-09T05:48:27.817Z,23.39
2023-05-09T05:50:56.710Z,23.68
2023-05-09T05:53:32.722Z,24.05
2023-05-09T05:56:02.459Z,24.45
2023-05-09T05:58:32.613Z,24.88
2023-05-09T06:01:02.346Z,25.11
2023-05-09T06:03:32.662Z,25.28
2023-05-09T06:06:04.418Z,24.99
2023-05-09T06:08:34.122Z,24.31
2023-05-09T06:11:03.562Z,23.59
2023-05-09T06:13:32.860Z,22.85
2023-05-09T06:16:18.574Z,22.04
2023-05-09T06:18:52.067Z,21.27
2023-05-09T06:21:23.468Z,20.60
2023-05-09T06:24:07.654Z,20.07
2023-05-09T06:26:39.905Z,19.57
2023-05-09T06:29:08.834Z,19.16
2023-05-09T06:31:39.353Z,18.82
2023-05-09T06:34:08.287Z,18.58
2023-05-09T06:36:37.140Z,18.35
2023-05-09T06:39:05.911Z,18.20
2023-05-09T06:41:35.169Z,18.12
2023-05-09T06:44:03.878Z,18.05
2023-05-09T06:46:32.862Z,18.00
2023-05-09T06:49:04.866Z,17.91
2023-05-09T06:51:33.468Z,17.84
2023-05-09T06:54:02.485Z,17.77
2023-05-09T06:56:31.857Z,17.74
2023-05-09T06:59:00.726Z,17.73
2023-05-09T07:01:29.371Z,17.73
2023-05-09T07:03:59.449Z,17.73
2023-05-09T07:06:28.162Z,17.72
2023-05-09T07:08:57.747Z,17.69
2023-05-09T07:11:27.397Z,17.67
2023-05-09T07:13:56.670Z,17.68
2023-05-09T07:16:25.257Z,17.64
2023-05-09T07:18:53.737Z,17.64
2023-05-09T07:21:22.523Z,17.66
2023-05-09T07:23:51.079Z,17.71
2023-05-09T07:26:20.277Z,17.73
2023-05-09T07:28:51.592Z,17.72
2023-05-09T07:31:20.586Z,17.74
2023-05-09T07:33:49.487Z,17.75
2023-05-09T07:36:18.598Z,17.79
2023-05-09T07:38:48.786Z,17.80
2023-05-09T07:41:16.939Z,17.84
2023-05-09T07:43:46.011Z,17.85
2023-05-09T07:46:15.301Z,17.80
2023-05-09T07:48:43.945Z,17.79
2023-05-09T07:51:12.847Z,17.81
2023-05-09T07:53:41.968Z,17.79
2023-05-09T07:56:10.901Z,17.77
2023-05-09T07:58:39.895Z,17.75
2023-05-09T08:01:08.451Z,17.69
2023-05-09T08:03:37.566Z,17.65
2023-05-09T08:06:06.043Z,17.63
2023-05-09T08:08:35.901Z,17.62
2023-05-09T08:11:05.930Z,17.65
2023-05-09T08:13:35.055Z,17.70
2023-05-09T08:16:04.633Z,17.75
2023-05-09T08:18:34.111Z,17.77
2023-05-09T08:21:03.116Z,17.83
2023-05-09T08:23:32.224Z,17.87
2023-05-09T08:26:01.305Z,17.87
2023-05-09T08:28:30.621Z,17.91
2023-05-09T08:30:59.818Z,17.86
2023-05-09T08:33:28.945Z,17.79
2023-05-09T08:35:58.055Z,17.80
2023-05-09T08:38:27.373Z,17.82
2023-05-09T08:41:02.062Z,17.86
2023-05-09T08:43:33.754Z,17.87
2023-05-09T08:46:10.491Z,17.92
2023-05-09T08:48:39.423Z,17.92
2023-05-09T08:51:08.630Z,17.87
2023-05-09T08:53:38.510Z,17.83
2023-05-09T08:56:07.770Z,17.76
2023-05-09T08:58:37.146Z,17.77
2023-05-09T09:01:07.752Z,17.75
2023-05-09T09:03:38.726Z,17.76
2023-05-09T09:06:09.511Z,17.79
2023-05-09T09:08:38.622Z,17.82
2023-05-09T09:11:07.950Z,17.79
2023-05-09T09:13:39.312Z,17.76
2023-05-09T09:16:14.808Z,17.75
2023-05-09T09:18:44.522Z,17.77
2023-05-09T09:21:16.749Z,17.84
2023-05-09T09:23:47.722Z,17.93
2023-05-09T09:26:17.299Z,17.97
2023-05-09T09:28:46.179Z,17.96
2023-05-09T09:31:26.392Z,17.94
2023-05-09T09:34:04.390Z,17.94
2023-05-09T09:36:33.646Z,17.97
2023-05-09T09:39:05.303Z,17.93
2023-05-09T09:41:35.402Z,17.89
2023-05-09T09:44:08.943Z,17.93
2023-05-09T09:46:44.670Z,17.98
2023-05-09T09:49:14.456Z,18.05
2023-05-09T09:51:44.027Z,18.10
2023-05-09T09:54:13.968Z,18.08
2023-05-09T09:56:44.344Z,18.10
2023-05-09T09:59:14.637Z,18.10
2023-05-09T10:02:05.133Z,18.12
2023-05-09T10:04:38.124Z,18.05
2023-05-09T10:07:07.847Z,18.06
2023-05-09T10:09:40.253Z,18.05
2023-05-09T10:12:08.840Z,18.03
2023-05-09T10:14:38.990Z,18.01
2023-05-09T10:17:07.826Z,18.02
2023-05-09T10:19:36.241Z,18.03
2023-05-09T10:22:06.014Z,18.02
2023-05-09T10:24:42.467Z,17.99
2023-05-09T10:27:11.757Z,17.99
2023-05-09T10:29:49.373Z,18.03
2023-05-09T10:32:52.984Z,18.09
2023-05-09T10:35:25.643Z,18.12
2023-05-09T10:37:57.730Z,18.13
2023-05-09T10:40:28.604Z,18.19
2023-05-09T10:42:57.499Z,18.27
2023-05-09T10:45:27.068Z,18.35
2023-05-09T10:47:56.713Z,18.35
2023-05-09T10:50:26.681Z,18.35
2023-05-09T10:53:04.961Z,18.32
2023-05-09T10:55:52.127Z,18.26
2023-05-09T10:58:22.219Z,18.24
2023-05-09T11:00:52.105Z,18.22
2023-05-09T11:03:21.704Z,18.20
2023-05-09T11:05:53.088Z,18.19
2023-05-09T11:08:22.112Z,18.20
2023-05-09T11:10:52.068Z,18.17
2023-05-09T11:13:23.679Z,18.18
2023-05-09T11:16:01.502Z,18.22
2023-05-09T11:18:31.510Z,18.23
2023-05-09T11:21:08.094Z,18.24
2023-05-09T11:23:39.686Z,18.26
2023-05-09T11:26:09.758Z,18.29
2023-05-09T11:28:39.997Z,18.33
2023-05-09T11:31:13.287Z,18.32
2023-05-09T11:33:43.155Z,18.33
2023-05-09T11:36:15.260Z,18.33
2023-05-09T11:38:44.384Z,18.36
2023-05-09T11:41:14.047Z,18.40
2023-05-09T11:43:47.382Z,18.39
2023-05-09T11:46:16.896Z,18.39
2023-05-09T11:48:45.791Z,18.36
2023-05-09T11:51:18.913Z,18.36
2023-05-09T11:53:52.018Z,18.35
2023-05-09T11:56:23.725Z,18.33
2023-05-09T11:58:52.994Z,18.37
2023-05-09T12:01:22.968Z,18.41
2023-05-09T12:03:52.475Z,18.40
2023-05-09T12:06:21.242Z,18.36
2023-05-09T12:08:49.594Z,18.31
2023-05-09T12:11:21.965Z,18.25
2023-05-09T12:13:52.809Z,18.23
2023-05-09T12:16:22.325Z,18.26
2023-05-09T12:18:52.211Z,18.32
2023-05-09T12:21:21.983Z,18.38
2023-05-09T12:23:53.100Z,18.44
2023-05-09T12:26:22.322Z,18.50
2023-05-09T12:28:50.793Z,18.54
2023-05-09T12:31:19.750Z,18.58
2023-05-09T12:33:48.506Z,18.62
2023-05-09T12:36:17.557Z,18.65
2023-05-09T12:38:55.720Z,18.64
2023-05-09T12:43:58.919Z,18.62
2023-05-09T12:46:27.670Z,18.53
2023-05-09T12:48:56.643Z,18.47
2023-05-09T12:51:25.656Z,18.48
2023-05-09T12:53:55.081Z,18.49
2023-05-09T12:56:23.990Z,18.50
2023-05-09T12:58:54.186Z,18.53
2023-05-09T13:01:24.361Z,18.52
2023-05-09T13:03:54.527Z,18.54
2023-05-09T13:06:24.576Z,18.55
2023-05-09T13:09:00.999Z,18.60
2023-05-09T13:11:30.607Z,18.65
2023-05-09T13:13:59.815Z,18.65
2023-05-09T13:16:28.801Z,18.64
2023-05-09T13:18:57.848Z,18.64
2023-05-09T13:21:27.094Z,18.62
2023-05-09T13:23:56.082Z,18.62
2023-05-09T13:26:25.026Z,18.64
2023-05-09T13:28:54.003Z,18.65
2023-05-09T13:31:23.619Z,18.64
2023-05-09T13:33:52.703Z,18.61
2023-05-09T13:36:21.808Z,18.58
2023-05-09T13:38:51.101Z,18.57
2023-05-09T13:41:24.091Z,18.55
2023-05-09T13:43:53.308Z,18.49
2023-05-09T13:46:22.408Z,18.49
2023-05-09T13:48:50.605Z,18.49
2023-05-09T13:51:20.072Z,18.44
2023-05-09T13:53:49.038Z,18.39
2023-05-09T13:56:18.292Z,18.40
2023-05-09T13:58:47.404Z,18.42
2023-05-09T14:01:16.424Z,18.44
2023-05-09T14:03:47.989Z,18.45
2023-05-09T14:06:16.842Z,18.46
2023-05-09T14:08:44.984Z,18.47
2023-05-09T14:11:14.168Z,18.43
2023-05-09T14:13:42.561Z,18.40
2023-05-09T14:16:10.925Z,18.37
2023-05-09T14:18:40.778Z,18.31
2023-05-09T14:21:09.650Z,18.24
2023-05-09T14:23:39.124Z,18.17
2023-05-09T14:26:08.080Z,18.18
2023-05-09T14:28:37.726Z,18.18
2023-05-09T14:31:05.965Z,18.17
2023-05-09T14:33:36.274Z,18.11
2023-05-09T14:36:06.344Z,18.08
2023-05-09T14:38:35.573Z,18.10
2023-05-09T14:41:04.661Z,18.09
2023-05-09T14:43:33.694Z,18.05
2023-05-09T14:46:02.915Z,18.01
2023-05-09T14:48:31.636Z,17.95
2023-05-09T14:51:00.925Z,17.89
2023-05-09T14:53:29.510Z,17.84
2023-05-09T14:55:58.422Z,17.78
2023-05-09T14:58:27.133Z,17.74
2023-05-09T15:00:56.975Z,17.73
2023-05-09T15:03:25.494Z,17.73
2023-05-09T15:05:54.593Z,17.74
2023-05-09T15:08:23.490Z,17.76
2023-05-09T15:10:52.278Z,17.77
2023-05-09T15:13:22.266Z,17.75
2023-05-09T15:15:51.925Z,17.72
2023-05-09T15:18:22.172Z,17.73
2023-05-09T15:20:52.394Z,17.71
2023-05-09T15:23:21.035Z,17.70
2023-05-09T15:25:49.558Z,17.67
2023-05-09T15:28:18.039Z,17.65
2023-05-09T15:30:46.375Z,17.59
2023-05-09T15:33:14.702Z,17.59
2023-05-09T15:35:44.639Z,17.60
2023-05-09T15:38:13.669Z,17.59
2023-05-09T15:40:42.870Z,17.59
2023-05-09T15:43:11.507Z,17.58
2023-05-09T15:45:45.459Z,17.56
2023-05-09T15:48:14.942Z,17.55
2023-05-09T15:50:44.747Z,17.53
2023-05-09T15:53:15.855Z,17.49
2023-05-09T15:55:44.799Z,17.44
2023-05-09T15:58:14.465Z,17.40
2023-05-09T16:00:42.816Z,17.41
2023-05-09T16:03:11.170Z,17.37
2023-05-09T16:05:43.175Z,17.30
2023-05-09T16:08:12.520Z,17.29
2023-05-09T16:10:40.979Z,17.24
2023-05-09T16:13:09.602Z,17.19
2023-05-09T16:15:38.033Z,17.17
2023-05-09T16:18:06.676Z,17.17
2023-05-09T16:20:35.763Z,17.16
2023-05-09T16:23:04.742Z,17.10
2023-05-09T16:25:35.314Z,17.03
2023-05-09T16:28:05.242Z,16.95
2023-05-09T16:30:34.757Z,16.87
2023-05-09T16:33:03.956Z,16.80
2023-05-09T16:35:32.808Z,16.73
2023-05-09T16:38:01.663Z,16.70
2023-05-09T16:40:30.716Z,16.67
2023-05-09T16:42:59.734Z,16.64
2023-05-09T16:45:29.090Z,16.60
2023-05-09T16:47:58.978Z,16.56
2023-05-09T16:50:30.339Z,16.54
2023-05-09T16:52:59.192Z,16.51
2023-05-09T16:55:27.717Z,16.47
2023-05-09T16:57:56.737Z,16.39
2023-05-09T17:00:25.585Z,16.33
2023-05-09T17:02:55.251Z,16.28
2023-05-09T17:05:24.671Z,16.25
2023-05-09T17:07:53.722Z,16.21
2023-05-09T17:10:22.715Z,16.15
2023-05-09T17:12:51.611Z,16.11
2023-05-09T17:15:20.126Z,16.08
2023-05-09T17:17:49.365Z,16.03
2023-05-09T17:20:19.515Z,15.99
2023-05-09T17:22:48.458Z,15.95
2023-05-09T17:25:18.347Z,15.88
2023-05-09T17:27:47.643Z,15.81
2023-05-09T17:30:16.620Z,15.76
2023-05-09T17:32:46.218Z,15.68
2023-05-09T17:35:15.471Z,15.63
2023-05-09T17:37:44.048Z,15.58
2023-05-09T17:40:12.688Z,15.55
2023-05-09T17:42:41.371Z,15.50
2023-05-09T17:45:11.147Z,15.44
2023-05-09T17:47:40.402Z,15.43
2023-05-09T17:50:10.796Z,15.39
2023-05-09T17:52:40.632Z,15.35
2023-05-09T17:55:09.740Z,15.31
2023-05-09T17:57:38.314Z,15.28
2023-05-09T18:00:09.482Z,15.23
2023-05-09T18:02:44.587Z,15.14
2023-05-09T18:05:13.168Z,15.07
2023-05-09T18:07:42.231Z,15.03
2023-05-09T18:10:11.434Z,14.98
2023-05-09T18:12:40.139Z,14.95
2023-05-09T18:15:08.620Z,14.93
2023-05-09T18:17:37.110Z,14.88
2023-05-09T18:20:06.814Z,14.81
2023-05-09T18:22:37.805Z,14.75
2023-05-09T18:25:06.633Z,14.70
2023-05-09T18:27:35.556Z,14.63
2023-05-09T18:30:03.919Z,14.54
2023-05-09T18:32:32.760Z,14.47
2023-05-09T18:35:01.539Z,14.38
2023-05-09T18:37:30.353Z,14.28
2023-05-09T18:39:59.312Z,14.18
2023-05-09T18:42:28.477Z,14.11
2023-05-09T18:44:57.792Z,14.05
2023-05-09T18:47:27.856Z,13.98
2023-05-09T18:49:56.054Z,13.89
2023-05-09T18:52:24.214Z,13.81
2023-05-09T18:54:52.394Z,13.74
2023-05-09T18:57:21.171Z,13.69
2023-05-09T18:59:52.444Z,13.65
2023-05-09T19:02:21.199Z,13.57
2023-05-09T19:04:51.642Z,13.52
2023-05-09T19:07:19.860Z,13.47
2023-05-09T19:09:48.118Z,13.42
2023-05-09T19:12:16.562Z,13.34
2023-05-09T19:14:44.682Z,13.28
2023-05-09T19:17:12.707Z,13.23
2023-05-09T19:19:41.013Z,13.17
2023-05-09T19:24:51.936Z,13.06
2023-05-09T19:27:20.093Z,12.98
2023-05-09T19:29:49.848Z,12.92
2023-05-09T19:32:18.899Z,12.90
2023-05-09T19:34:47.645Z,12.86
2023-05-09T19:37:15.781Z,12.78
2023-05-09T19:39:44.011Z,12.72
2023-05-09T19:42:12.368Z,12.65
2023-05-09T19:44:40.654Z,12.51
2023-05-09T19:47:10.389Z,12.39
2023-05-09T19:49:40.417Z,12.25
2023-05-09T19:52:08.546Z,12.10
2023-05-09T19:54:36.867Z,11.93
2023-05-09T19:57:06.757Z,11.84
2023-05-09T19:59:34.788Z,11.81
2023-05-09T20:02:03.201Z,11.82
2023-05-09T20:04:35.925Z,11.82
2023-05-09T20:09:50.650Z,11.78
2023-05-09T20:12:18.933Z,11.72
2023-05-09T20:14:47.717Z,11.70
2023-05-09T20:17:16.361Z,11.65
2023-05-09T20:19:44.700Z,11.64
2023-05-09T20:22:12.803Z,11.61
2023-05-09T20:24:41.008Z,11.57
2023-05-09T20:27:10.116Z,11.55
2023-05-09T20:29:38.599Z,11.56
2023-05-09T20:32:07.949Z,11.54
2023-05-09T20:34:36.328Z,11.52
2023-05-09T20:37:05.083Z,11.50
2023-05-09T20:39:33.490Z,11.45
2023-05-09T20:42:03.024Z,11.45
2023-05-09T20:44:32.661Z,11.44
2023-05-09T20:47:01.361Z,11.39
2023-05-09T20:49:31.126Z,11.38
2023-05-09T20:51:59.542Z,11.34
2023-05-09T20:54:29.347Z,11.31
2023-05-09T20:56:57.892Z,11.28
2023-05-09T20:59:26.797Z,11.28
2023-05-09T21:01:56.015Z,11.24
2023-05-09T21:04:24.444Z,11.22
2023-05-09T21:06:52.858Z,11.17
2023-05-09T21:09:21.445Z,11.08
2023-05-09T21:11:49.766Z,11.05
2023-05-09T21:14:18.266Z,11.00
2023-05-09T21:16:46.965Z,10.96
2023-05-09T21:19:15.468Z,10.92
2023-05-09T21:21:44.259Z,10.87
2023-05-09T21:24:13.560Z,10.84
2023-05-09T21:26:42.152Z,10.81
2023-05-09T21:29:10.478Z,10.83
2023-05-09T21:31:38.900Z,10.83
2023-05-09T21:34:11.064Z,10.80
2023-05-09T21:36:42.043Z,10.78
2023-05-09T21:39:11.500Z,10.77
2023-05-09T21:41:42.302Z,10.74
2023-05-09T21:44:12.622Z,10.70
2023-05-09T21:46:43.709Z,10.65
2023-05-09T21:49:13.171Z,10.59
2023-05-09T21:51:42.333Z,10.57
2023-05-09T21:54:11.500Z,10.53
2023-05-09T21:56:43.331Z,10.48
2023-05-09T21:59:11.717Z,10.46
2023-05-09T22:01:40.790Z,10.43
2023-05-09T22:04:09.768Z,10.40
2023-05-09T22:06:38.485Z,10.39
2023-05-09T22:09:07.218Z,10.39
2023-05-09T22:11:36.091Z,10.32
2023-05-09T22:14:05.283Z,10.23
2023-05-09T22:16:33.756Z,10.21
2023-05-09T22:19:02.159Z,10.22
2023-05-09T22:21:31.601Z,10.24
2023-05-09T22:23:59.967Z,10.20
2023-05-09T22:26:28.493Z,10.19
2023-05-09T22:28:57.721Z,10.16
2023-05-09T22:31:26.583Z,10.14
2023-05-09T22:33:55.533Z,10.07
2023-05-09T22:36:25.233Z,10.08
2023-05-09T22:38:54.321Z,10.07
2023-05-09T22:41:23.754Z,10.05
2023-05-09T22:43:53.023Z,10.06
2023-05-09T22:46:22.126Z,10.04
2023-05-09T22:48:51.269Z,10.00
2023-05-09T22:51:20.330Z,9.96
2023-05-09T22:53:49.568Z,9.91
2023-05-09T22:56:18.505Z,9.87
2023-05-09T22:58:47.870Z,9.87
2023-05-09T23:01:17.037Z,9.88
2023-05-09T23:03:45.998Z,9.89
2023-05-09T23:06:14.935Z,9.88
2023-05-09T23:08:43.988Z,9.85
2023-05-09T23:11:12.547Z,9.82
2023-05-09T23:13:41.533Z,9.76
2023-05-09T23:16:10.907Z,9.75
2023-05-09T23:18:40.170Z,9.76
2023-05-09T23:21:09.353Z,9.74
2023-05-09T23:23:38.485Z,9.73
2023-05-09T23:26:07.531Z,9.72
2023-05-09T23:28:36.952Z,9.74
2023-05-09T23:31:05.965Z,9.75
2023-05-09T23:33:34.620Z,9.71
2023-05-09T23:36:04.389Z,9.68
2023-05-09T23:38:33.435Z,9.65
2023-05-09T23:41:02.643Z,9.59
2023-05-09T23:43:31.882Z,9.63
2023-05-09T23:46:00.933Z,9.66
2023-05-09T23:48:29.870Z,9.64
2023-05-09T23:50:59.041Z,9.59
2023-05-09T23:53:28.295Z,9.55
2023-05-09T23:55:58.287Z,9.54
2023-05-09T23:58:27.074Z,9.48
